Time;durP1;ratioP1;P1;durP2;ratioP2;P2;SDS_P1;SDS_P2;PMS_P1;PMS_P2;Temp;Humidity;BMP_temperature;BMP_pressure;BME280_temperature;BME280_humidity;BME280_pressure;Samples;Min_cycle;Max_cycle;Signal;HPM_P1;HPM_P2
2021/06/10 00:01:18;;;;;;;;;;;18.90;74.60;;;;;;4979175;28;87797;-53
2021/06/10 00:03:43;;;;;;;;;;;18.90;74.70;;;;;;4977843;28;88239;-52
2021/06/10 00:06:09;;;;;;;;;;;18.90;74.70;;;;;;4978235;28;87210;-51
2021/06/10 00:08:35;;;;;;;;;;;18.80;74.80;;;;;;4979036;28;88156;-55
2021/06/10 00:11:00;;;;;;;;;;;18.80;74.80;;;;;;4980114;28;87263;-51
2021/06/10 00:13:26;;;;;;;;;;;18.80;74.80;;;;;;4981539;28;87166;-51
2021/06/10 00:15:51;;;;;;;;;;;18.80;74.70;;;;;;4981153;28;88742;-51
2021/06/10 00:18:17;;;;;;;;;;;18.80;74.70;;;;;;4979084;28;88609;-51
2021/06/10 00:20:42;;;;;;;;;;;18.80;74.60;;;;;;4980234;28;87144;-50
2021/06/10 00:23:08;;;;;;;;;;;18.80;75.50;;;;;;4977985;28;89569;-52
2021/06/10 00:25:34;;;;;;;;;;;18.80;74.60;;;;;;4979380;28;86542;-51
2021/06/10 00:28:00;;;;;;;;;;;18.80;74.80;;;;;;4979411;28;87678;-51
2021/06/10 00:30:26;;;;;;;;;;;18.70;74.70;;;;;;4980143;28;87924;-51
2021/06/10 00:32:52;;;;;;;;;;;18.70;74.80;;;;;;4980358;28;88263;-50
2021/06/10 00:35:18;;;;;;;;;;;18.70;74.70;;;;;;4981287;28;89516;-51
2021/06/10 00:37:44;;;;;;;;;;;18.70;74.80;;;;;;4980489;28;88340;-51
2021/06/10 00:40:10;;;;;;;;;;;18.70;74.80;;;;;;4980477;28;87140;-51
2021/06/10 00:42:36;;;;;;;;;;;18.70;74.60;;;;;;4983109;28;89012;-52
2021/06/10 00:45:04;;;;;;;;;;;18.70;74.90;;;;;;4981383;28;87219;-52
2021/06/10 00:47:29;;;;;;;;;;;18.70;74.80;;;;;;4979326;28;88519;-51
2021/06/10 00:49:55;;;;;;;;;;;18.60;74.70;;;;;;4980079;28;87114;-53
2021/06/10 00:52:20;;;;;;;;;;;18.60;74.70;;;;;;4979041;28;87180;-50
2021/06/10 00:54:46;;;;;;;;;;;18.60;74.80;;;;;;4978156;28;88257;-53
2021/06/10 00:57:11;;;;;;;;;;;18.60;74.70;;;;;;4976644;28;88121;-52
2021/06/10 00:59:37;;;;;;;;;;;18.60;74.80;;;;;;4976026;28;87225;-51
2021/06/10 01:02:03;;;;;;;;;;;18.60;74.70;;;;;;4981281;28;87530;-50
2021/06/10 01:04:28;;;;;;;;;;;18.60;74.60;;;;;;4979114;28;87221;-51
2021/06/10 01:06:58;;;;;;;;;;;18.50;74.70;;;;;;4979643;28;87181;-51
2021/06/10 01:09:23;;;;;;;;;;;18.50;74.60;;;;;;4979611;28;88614;-50
2021/06/10 01:11:58;;;;;;;;;;;18.50;74.70;;;;;;4976625;28;88992;-52
2021/06/10 01:14:39;;;;;;;;;;;18.50;74.60;;;;;;4979058;28;87587;-55
2021/06/10 01:17:05;;;;;;;;;;;18.50;74.60;;;;;;4979338;28;88224;-50
2021/06/10 01:19:40;;;;;;;;;;;18.40;74.50;;;;;;4978315;28;87142;-51
2021/06/10 01:22:26;;;;;;;;;;;18.40;74.60;;;;;;4979982;28;88737;-52
2021/06/10 01:25:05;;;;;;;;;;;18.40;74.60;;;;;;4988426;28;89311;-51
2021/06/10 01:27:33;;;;;;;;;;;18.40;74.70;;;;;;4978786;28;87576;-53
2021/06/10 01:30:05;;;;;;;;;;;18.40;74.70;;;;;;4979684;28;89768;-51
2021/06/10 01:32:31;;;;;;;;;;;18.40;74.60;;;;;;4979605;28;87155;-52
2021/06/10 01:34:57;;;;;;;;;;;18.30;74.70;;;;;;4980320;28;87518;-51
2021/06/10 01:37:23;;;;;;;;;;;18.30;74.70;;;;;;4980454;28;88400;-52
2021/06/10 01:39:50;;;;;;;;;;;18.40;74.60;;;;;;4981375;28;86414;-51
2021/06/10 01:42:16;;;;;;;;;;;18.30;74.60;;;;;;4980432;28;88202;-51
2021/06/10 01:44:42;;;;;;;;;;;18.30;74.60;;;;;;4978999;28;88467;-51
2021/06/10 01:47:08;;;;;;;;;;;18.30;74.60;;;;;;4986295;28;89034;-52
2021/06/10 01:49:35;;;;;;;;;;;18.20;74.60;;;;;;4983260;28;89526;-55
2021/06/10 01:52:00;;;;;;;;;;;18.20;74.60;;;;;;4983999;28;88512;-52
2021/06/10 01:54:26;;;;;;;;;;;18.20;74.50;;;;;;4981382;28;88834;-51
2021/06/10 01:56:52;;;;;;;;;;;18.20;74.60;;;;;;4979162;28;87969;-51
2021/06/10 01:59:18;;;;;;;;;;;18.20;74.60;;;;;;4979798;28;87219;-52
2021/06/10 02:01:45;;;;;;;;;;;18.20;74.50;;;;;;4980532;28;87130;-51
2021/06/10 02:04:12;;;;;;;;;;;18.20;74.50;;;;;;4980427;28;89173;-52
2021/06/10 02:06:41;;;;;;;;;;;18.20;74.60;;;;;;4979307;28;87138;-51
2021/06/10 02:09:06;;;;;;;;;;;18.20;74.60;;;;;;4985236;28;88388;-51
2021/06/10 02:11:36;;;;;;;;;;;18.10;74.50;;;;;;4982979;28;88097;-55
2021/06/10 02:14:01;;;;;;;;;;;18.10;74.60;;;;;;4979949;28;90226;-52
2021/06/10 02:16:27;;;;;;;;;;;18.10;74.60;;;;;;4979300;28;89890;-52
2021/06/10 02:18:53;;;;;;;;;;;18.10;74.60;;;;;;4979910;28;87166;-51
2021/06/10 02:21:19;;;;;;;;;;;18.10;74.70;;;;;;4980987;28;87496;-50
2021/06/10 02:23:45;;;;;;;;;;;18.10;74.50;;;;;;4981653;28;89407;-51
2021/06/10 02:26:12;;;;;;;;;;;18.00;74.50;;;;;;4981668;28;87215;-51
2021/06/10 02:28:38;;;;;;;;;;;18.00;74.50;;;;;;4982158;28;87378;-51
2021/06/10 02:31:04;;;;;;;;;;;18.00;74.60;;;;;;4984933;28;89280;-53
2021/06/10 02:33:30;;;;;;;;;;;18.00;74.50;;;;;;4981127;28;87145;-53
2021/06/10 02:35:55;;;;;;;;;;;18.00;74.60;;;;;;4981166;28;90450;-53
2021/06/10 02:38:22;;;;;;;;;;;18.00;74.60;;;;;;4983157;28;88168;-51
2021/06/10 02:40:49;;;;;;;;;;;17.90;74.60;;;;;;4982982;28;88908;-52
2021/06/10 02:43:15;;;;;;;;;;;18.00;74.60;;;;;;4981393;28;88787;-50
2021/06/10 02:45:43;;;;;;;;;;;17.90;74.60;;;;;;4981718;28;87188;-53
2021/06/10 02:48:09;;;;;;;;;;;17.90;74.60;;;;;;4979509;28;87855;-51
2021/06/10 02:50:35;;;;;;;;;;;17.90;74.60;;;;;;4979760;28;88715;-52
2021/06/10 02:53:01;;;;;;;;;;;17.90;74.50;;;;;;4983655;28;86431;-52
2021/06/10 02:55:27;;;;;;;;;;;17.80;74.50;;;;;;4980119;28;89837;-54
2021/06/10 02:57:56;;;;;;;;;;;17.90;74.50;;;;;;4979986;28;87164;-52
2021/06/10 03:00:25;;;;;;;;;;;17.80;74.40;;;;;;4982503;28;88110;-53
2021/06/10 03:02:50;;;;;;;;;;;17.80;74.50;;;;;;4980172;28;87738;-51
2021/06/10 03:05:17;;;;;;;;;;;17.80;74.50;;;;;;4981480;28;87218;-51
2021/06/10 03:07:43;;;;;;;;;;;17.70;74.40;;;;;;4981627;28;87145;-52
2021/06/10 03:10:10;;;;;;;;;;;17.70;74.50;;;;;;4981212;28;87337;-49
2021/06/10 03:12:36;;;;;;;;;;;17.70;74.40;;;;;;4984163;28;87140;-51
2021/06/10 03:15:02;;;;;;;;;;;17.80;74.50;;;;;;4980724;28;87638;-51
2021/06/10 03:17:28;;;;;;;;;;;17.70;74.50;;;;;;4982109;28;86553;-50
2021/06/10 03:19:54;;;;;;;;;;;17.70;74.50;;;;;;4982193;28;87150;-51
2021/06/10 03:22:20;;;;;;;;;;;17.70;74.40;;;;;;4982458;28;88595;-53
2021/06/10 03:24:46;;;;;;;;;;;17.70;74.60;;;;;;4981343;28;89068;-50
2021/06/10 03:27:12;;;;;;;;;;;17.60;74.50;;;;;;4981431;28;90014;-50
2021/06/10 03:29:39;;;;;;;;;;;17.60;74.60;;;;;;4981033;28;88767;-52
2021/06/10 03:32:05;;;;;;;;;;;17.60;74.30;;;;;;4980719;28;87159;-52
2021/06/10 03:34:33;;;;;;;;;;;17.60;74.40;;;;;;4984035;28;87627;-51
2021/06/10 03:37:00;;;;;;;;;;;17.60;74.50;;;;;;4980381;28;87168;-51
2021/06/10 03:39:26;;;;;;;;;;;17.60;74.40;;;;;;4979029;28;87666;-52
2021/06/10 03:41:52;;;;;;;;;;;17.60;74.40;;;;;;4979443;28;87180;-51
2021/06/10 03:44:18;;;;;;;;;;;17.50;74.50;;;;;;4979179;28;87178;-51
2021/06/10 03:46:44;;;;;;;;;;;17.50;74.50;;;;;;4978639;28;89062;-50
2021/06/10 03:49:11;;;;;;;;;;;17.50;74.50;;;;;;4977053;28;88617;-52
2021/06/10 03:51:36;;;;;;;;;;;17.50;74.50;;;;;;4977016;28;87311;-50
2021/06/10 03:54:02;;;;;;;;;;;17.50;74.40;;;;;;4978094;28;87195;-52
2021/06/10 03:56:27;;;;;;;;;;;17.50;74.50;;;;;;4980534;28;89175;-50
2021/06/10 03:58:53;;;;;;;;;;;17.50;74.40;;;;;;4978765;28;87506;-51
2021/06/10 04:01:19;;;;;;;;;;;17.50;74.50;;;;;;4978678;28;87154;-51
2021/06/10 04:03:44;;;;;;;;;;;17.50;74.50;;;;;;4979897;28;87165;-51
2021/06/10 04:06:12;;;;;;;;;;;17.50;74.50;;;;;;4979908;28;87198;-52
2021/06/10 04:08:37;;;;;;;;;;;17.50;74.40;;;;;;4979018;28;90200;-52
2021/06/10 04:11:03;;;;;;;;;;;17.50;74.60;;;;;;4981756;28;87106;-51
2021/06/10 04:13:28;;;;;;;;;;;17.50;74.50;;;;;;4980347;28;89199;-51
2021/06/10 04:15:54;;;;;;;;;;;17.40;74.40;;;;;;4980946;28;88665;-52
2021/06/10 04:18:19;;;;;;;;;;;17.40;74.50;;;;;;4981730;28;88075;-50
2021/06/10 04:20:46;;;;;;;;;;;17.40;74.40;;;;;;4977113;28;89244;-50
2021/06/10 04:23:11;;;;;;;;;;;17.40;74.50;;;;;;4977854;28;87143;-51
2021/06/10 04:25:37;;;;;;;;;;;17.40;74.50;;;;;;4979031;28;87400;-50
2021/06/10 04:28:02;;;;;;;;;;;17.40;74.50;;;;;;4979923;28;88797;-51
2021/06/10 04:30:28;;;;;;;;;;;17.40;74.50;;;;;;4981832;28;86425;-56
2021/06/10 04:32:53;;;;;;;;;;;17.40;74.50;;;;;;4980757;28;88651;-52
2021/06/10 04:35:19;;;;;;;;;;;17.40;74.70;;;;;;4979160;28;88729;-52
2021/06/10 04:37:44;;;;;;;;;;;17.30;74.60;;;;;;4976290;28;88123;-50
2021/06/10 04:40:10;;;;;;;;;;;17.40;74.70;;;;;;4979920;28;87971;-51
2021/06/10 04:42:36;;;;;;;;;;;17.30;74.60;;;;;;4977593;28;87171;-50
2021/06/10 04:45:02;;;;;;;;;;;17.30;74.50;;;;;;4978073;28;87192;-51
2021/06/10 04:47:27;;;;;;;;;;;17.30;74.60;;;;;;4977827;28;88176;-52
2021/06/10 04:49:53;;;;;;;;;;;17.30;74.60;;;;;;4979376;28;87174;-51
2021/06/10 04:52:18;;;;;;;;;;;17.30;74.60;;;;;;4979492;28;87285;-50
2021/06/10 04:54:44;;;;;;;;;;;17.30;74.70;;;;;;4979049;28;88596;-51
2021/06/10 04:57:09;;;;;;;;;;;17.30;74.70;;;;;;4979967;28;87163;-54
2021/06/10 04:59:35;;;;;;;;;;;17.30;74.70;;;;;;4983439;28;88802;-52
2021/06/10 05:02:04;;;;;;;;;;;17.30;74.90;;;;;;4976977;28;88989;-52
2021/06/10 05:04:29;;;;;;;;;;;17.30;75.00;;;;;;4978129;28;90168;-50
2021/06/10 05:06:55;;;;;;;;;;;17.30;75.00;;;;;;4979746;28;88179;-52
2021/06/10 05:09:21;;;;;;;;;;;17.30;75.00;;;;;;4980747;28;87267;-51
2021/06/10 05:11:46;;;;;;;;;;;17.30;75.10;;;;;;4977354;28;89004;-53
2021/06/10 05:14:12;;;;;;;;;;;17.30;75.20;;;;;;4976640;28;88370;-51
2021/06/10 05:16:37;;;;;;;;;;;17.30;75.20;;;;;;4978001;28;87139;-52
2021/06/10 05:19:03;;;;;;;;;;;17.30;75.20;;;;;;4979467;28;86908;-51
2021/06/10 05:21:29;;;;;;;;;;;17.30;75.30;;;;;;4982552;28;88344;-51
2021/06/10 05:23:55;;;;;;;;;;;17.30;76.00;;;;;;4980276;28;88188;-51
2021/06/10 05:26:20;;;;;;;;;;;17.30;75.40;;;;;;4978793;28;90317;-50
2021/06/10 05:28:46;;;;;;;;;;;17.30;75.50;;;;;;4977074;28;88800;-50
2021/06/10 05:31:11;;;;;;;;;;;17.30;75.50;;;;;;4977164;28;87170;-50
2021/06/10 05:33:37;;;;;;;;;;;17.30;75.50;;;;;;4977749;28;89366;-49
2021/06/10 05:36:03;;;;;;;;;;;17.30;75.60;;;;;;4979078;28;87230;-51
2021/06/10 05:38:29;;;;;;;;;;;17.40;75.60;;;;;;4979747;28;87217;-51
2021/06/10 05:40:54;;;;;;;;;;;17.40;75.70;;;;;;4980411;28;88017;-51
2021/06/10 05:43:22;;;;;;;;;;;17.40;75.70;;;;;;4980890;28;87899;-50
2021/06/10 05:45:49;;;;;;;;;;;17.40;75.80;;;;;;4979080;28;89617;-51
2021/06/10 05:48:14;;;;;;;;;;;17.40;75.80;;;;;;4980165;28;87141;-51
2021/06/10 05:50:40;;;;;;;;;;;17.40;75.90;;;;;;4978280;28;89470;-50
2021/06/10 05:53:05;;;;;;;;;;;17.40;75.90;;;;;;4976166;28;88082;-51
2021/06/10 05:55:31;;;;;;;;;;;17.40;75.90;;;;;;4976681;28;87514;-50
2021/06/10 05:57:57;;;;;;;;;;;17.40;75.90;;;;;;4978005;28;87287;-51
2021/06/10 06:00:24;;;;;;;;;;;17.40;76.00;;;;;;4978772;28;87244;-51
2021/06/10 06:02:49;;;;;;;;;;;17.40;75.90;;;;;;4977794;28;87157;-52
2021/06/10 06:05:15;;;;;;;;;;;17.40;76.10;;;;;;4981614;28;87631;-50
2021/06/10 06:07:41;;;;;;;;;;;17.40;76.10;;;;;;4980444;28;86436;-54
2021/06/10 06:10:06;;;;;;;;;;;17.40;76.10;;;;;;4978264;28;87829;-50
2021/06/10 06:12:33;;;;;;;;;;;17.40;76.10;;;;;;4976644;28;90497;-50
2021/06/10 06:14:58;;;;;;;;;;;17.50;76.00;;;;;;4980752;28;89734;-50
2021/06/10 06:17:24;;;;;;;;;;;17.50;76.10;;;;;;4980050;28;87954;-51
2021/06/10 06:19:50;;;;;;;;;;;17.50;76.20;;;;;;4978483;28;88188;-54
2021/06/10 06:22:15;;;;;;;;;;;17.40;76.20;;;;;;4979354;28;87118;-51
2021/06/10 06:24:41;;;;;;;;;;;17.40;76.20;;;;;;4980620;28;87190;-52
2021/06/10 06:27:07;;;;;;;;;;;17.50;76.20;;;;;;4983900;28;88001;-51
2021/06/10 06:29:33;;;;;;;;;;;17.50;76.20;;;;;;4980801;28;87139;-52
2021/06/10 06:31:59;;;;;;;;;;;17.50;76.30;;;;;;4980785;28;89243;-50
2021/06/10 06:34:25;;;;;;;;;;;17.50;76.30;;;;;;4981782;28;87170;-51
2021/06/10 06:36:50;;;;;;;;;;;17.50;76.20;;;;;;4981309;28;87194;-50
2021/06/10 06:39:16;;;;;;;;;;;17.50;76.30;;;;;;4980231;28;88837;-51
2021/06/10 06:41:42;;;;;;;;;;;17.50;76.30;;;;;;4982118;28;87185;-50
2021/06/10 06:44:07;;;;;;;;;;;17.50;76.30;;;;;;4983114;28;89136;-51
2021/06/10 06:46:33;;;;;;;;;;;17.50;76.30;;;;;;4980436;28;88821;-50
2021/06/10 06:48:58;;;;;;;;;;;17.50;76.40;;;;;;4981584;28;87146;-51
2021/06/10 06:51:25;;;;;;;;;;;17.50;76.30;;;;;;4979562;28;87978;-51
2021/06/10 06:53:50;;;;;;;;;;;17.50;76.40;;;;;;4978372;28;87226;-52
2021/06/10 06:56:16;;;;;;;;;;;17.50;76.30;;;;;;4979008;28;88817;-52
2021/06/10 06:58:42;;;;;;;;;;;17.50;76.40;;;;;;4978767;28;89423;-51
2021/06/10 07:01:08;;;;;;;;;;;17.60;76.50;;;;;;4979870;28;87204;-50
2021/06/10 07:03:33;;;;;;;;;;;17.60;76.30;;;;;;4980204;28;88096;-51
2021/06/10 07:05:59;;;;;;;;;;;17.60;76.40;;;;;;4980590;28;87692;-50
2021/06/10 07:08:28;;;;;;;;;;;17.60;76.30;;;;;;4985021;28;87157;-52
2021/06/10 07:10:54;;;;;;;;;;;17.60;76.30;;;;;;4978722;28;88484;-51
2021/06/10 07:13:21;;;;;;;;;;;17.60;76.50;;;;;;4978160;28;87184;-51
2021/06/10 07:15:46;;;;;;;;;;;17.60;76.40;;;;;;4978389;28;87795;-50
2021/06/10 07:18:12;;;;;;;;;;;17.60;76.40;;;;;;4979140;28;89159;-55
2021/06/10 07:20:37;;;;;;;;;;;17.60;76.50;;;;;;4981182;28;86373;-52
2021/06/10 07:23:03;;;;;;;;;;;17.70;76.40;;;;;;4981991;28;87478;-51
2021/06/10 07:25:28;;;;;;;;;;;17.70;76.50;;;;;;4980911;28;87642;-51
2021/06/10 07:27:54;;;;;;;;;;;17.60;76.30;;;;;;4981143;28;88190;-51
2021/06/10 07:30:21;;;;;;;;;;;17.70;76.40;;;;;;4981932;28;88496;-50
2021/06/10 07:32:47;;;;;;;;;;;17.70;76.70;;;;;;4981316;28;88336;-51
2021/06/10 07:35:13;;;;;;;;;;;17.70;76.60;;;;;;4979271;28;88739;-51
2021/06/10 07:37:39;;;;;;;;;;;17.80;76.50;;;;;;4977695;28;88340;-51
2021/06/10 07:40:05;;;;;;;;;;;17.70;76.40;;;;;;4978614;28;87202;-51
2021/06/10 07:42:30;;;;;;;;;;;17.80;76.50;;;;;;4979515;28;87409;-52
2021/06/10 07:44:56;;;;;;;;;;;17.80;76.50;;;;;;4980839;28;87088;-51
2021/06/10 07:47:21;;;;;;;;;;;17.80;76.60;;;;;;4979756;28;87157;-50
2021/06/10 07:49:47;;;;;;;;;;;17.80;76.50;;;;;;4980307;28;88208;-51
2021/06/10 07:52:12;;;;;;;;;;;17.80;76.40;;;;;;4983275;28;89674;-50
2021/06/10 07:54:38;;;;;;;;;;;17.80;76.10;;;;;;4981099;28;88227;-50
2021/06/10 07:57:04;;;;;;;;;;;17.80;76.20;;;;;;4977681;28;88622;-50
2021/06/10 07:59:32;;;;;;;;;;;17.90;76.20;;;;;;4977363;28;87124;-50
2021/06/10 08:01:57;;;;;;;;;;;17.90;76.10;;;;;;4980755;28;88613;-52
2021/06/10 08:04:23;;;;;;;;;;;17.90;75.70;;;;;;4981725;28;87967;-52
2021/06/10 08:06:48;;;;;;;;;;;17.90;75.40;;;;;;4978599;28;88616;-51
2021/06/10 08:09:14;;;;;;;;;;;18.00;75.30;;;;;;4978220;28;87680;-52
2021/06/10 08:11:44;;;;;;;;;;;18.00;75.40;;;;;;4978138;28;88495;-51
2021/06/10 08:14:09;;;;;;;;;;;18.00;75.50;;;;;;4983655;28;87206;-51
2021/06/10 08:16:35;;;;;;;;;;;18.00;76.30;;;;;;4980485;28;89158;-51
2021/06/10 08:19:01;;;;;;;;;;;18.00;76.10;;;;;;4978528;28;88249;-50
2021/06/10 08:21:27;;;;;;;;;;;18.00;76.70;;;;;;4977314;28;87718;-50
2021/06/10 08:23:52;;;;;;;;;;;18.10;75.80;;;;;;4977965;28;88286;-51
2021/06/10 08:26:18;;;;;;;;;;;18.10;76.00;;;;;;4979276;28;87141;-51
2021/06/10 08:28:43;;;;;;;;;;;18.10;75.80;;;;;;4980469;28;87262;-52
2021/06/10 08:31:09;;;;;;;;;;;18.10;75.70;;;;;;4981160;28;88122;-54
2021/06/10 08:33:36;;;;;;;;;;;18.10;75.70;;;;;;4979967;28;87010;-53
2021/06/10 08:36:05;;;;;;;;;;;18.10;75.70;;;;;;4983934;28;88084;-51
2021/06/10 08:38:31;;;;;;;;;;;18.10;75.40;;;;;;4977439;28;87196;-51
2021/06/10 08:40:56;;;;;;;;;;;18.10;75.50;;;;;;4977536;28;88636;-50
2021/06/10 08:43:22;;;;;;;;;;;18.10;75.70;;;;;;4978808;28;89190;-51
2021/06/10 08:45:53;;;;;;;;;;;18.10;75.50;;;;;;4979631;28;87223;-51
2021/06/10 08:48:18;;;;;;;;;;;18.20;75.10;;;;;;4981075;28;87148;-51
2021/06/10 08:50:44;;;;;;;;;;;18.20;74.70;;;;;;4979010;28;87989;-50
2021/06/10 08:53:11;;;;;;;;;;;18.20;74.70;;;;;;4976676;28;87155;-50
2021/06/10 08:55:37;;;;;;;;;;;18.20;75.00;;;;;;4979008;28;88732;-52
2021/06/10 08:58:02;;;;;;;;;;;18.20;74.50;;;;;;4979729;28;87425;-50
2021/06/10 09:00:31;;;;;;;;;;;18.20;74.50;;;;;;4977932;28;87153;-51
2021/06/10 09:02:58;;;;;;;;;;;18.30;75.00;;;;;;4979561;28;88344;-50
2021/06/10 09:05:23;;;;;;;;;;;18.30;74.70;;;;;;4977940;28;88170;-54
2021/06/10 09:07:56;;;;;;;;;;;18.30;74.30;;;;;;4978301;28;88357;-50
2021/06/10 09:10:24;;;;;;;;;;;18.30;74.50;;;;;;4976747;28;89272;-52
2021/06/10 09:12:54;;;;;;;;;;;18.30;74.00;;;;;;4979579;28;88734;-50
2021/06/10 09:15:20;;;;;;;;;;;18.30;74.10;;;;;;4976794;28;88652;-50
2021/06/10 09:17:45;;;;;;;;;;;18.30;73.80;;;;;;4979797;28;87572;-51
2021/06/10 09:20:24;;;;;;;;;;;18.30;73.60;;;;;;4978285;28;88792;-52
2021/06/10 09:22:51;;;;;;;;;;;18.40;74.40;;;;;;4976340;28;89937;-51
2021/06/10 09:25:19;;;;;;;;;;;18.40;74.20;;;;;;4980438;28;87157;-51
2021/06/10 09:27:57;;;;;;;;;;;18.40;73.40;;;;;;4976613;28;87153;-53
2021/06/10 09:30:33;;;;;;;;;;;18.40;74.20;;;;;;4979340;28;90194;-55
2021/06/10 09:33:02;;;;;;;;;;;18.50;73.70;;;;;;4980302;28;88878;-51
2021/06/10 09:35:29;;;;;;;;;;;18.50;73.60;;;;;;4977336;28;88783;-51
2021/06/10 09:37:59;;;;;;;;;;;18.50;73.40;;;;;;4976281;28;88946;-51
2021/06/10 09:40:25;;;;;;;;;;;18.50;73.50;;;;;;4982250;28;87151;-50
2021/06/10 09:42:50;;;;;;;;;;;18.50;73.30;;;;;;4979180;28;90269;-51
2021/06/10 09:45:17;;;;;;;;;;;18.50;73.40;;;;;;4979916;28;88622;-51
2021/06/10 09:47:46;;;;;;;;;;;18.60;73.40;;;;;;4979672;28;89369;-54
2021/06/10 09:50:15;;;;;;;;;;;18.60;73.20;;;;;;4977995;28;89758;-51
2021/06/10 09:52:46;;;;;;;;;;;18.60;73.40;;;;;;4982070;28;87152;-53
2021/06/10 09:55:43;;;;;;;;;;;18.60;73.60;;;;;;4981906;28;89141;-54
2021/06/10 09:58:11;;;;;;;;;;;18.60;73.40;;;;;;4985772;28;89469;-51
2021/06/10 10:00:37;;;;;;;;;;;18.70;73.30;;;;;;4980100;28;87268;-50
2021/06/10 10:03:03;;;;;;;;;;;18.60;73.20;;;;;;4982854;28;87343;-51
2021/06/10 10:05:28;;;;;;;;;;;18.70;73.40;;;;;;4980511;28;87159;-53
2021/06/10 10:07:54;;;;;;;;;;;18.70;72.60;;;;;;4980807;28;87627;-50
2021/06/10 10:10:20;;;;;;;;;;;18.70;73.10;;;;;;4980963;28;88083;-50
2021/06/10 10:12:47;;;;;;;;;;;18.80;72.90;;;;;;4982250;28;86443;-51
2021/06/10 10:15:14;;;;;;;;;;;18.80;72.30;;;;;;4980877;28;88461;-50
2021/06/10 10:17:40;;;;;;;;;;;18.80;72.70;;;;;;4979815;28;88124;-51
2021/06/10 10:20:07;;;;;;;;;;;18.80;72.70;;;;;;4978352;28;88139;-51
2021/06/10 10:22:32;;;;;;;;;;;18.90;72.70;;;;;;4979773;28;89866;-54
2021/06/10 10:24:59;;;;;;;;;;;18.90;72.70;;;;;;4982014;28;88932;-51
2021/06/10 10:27:25;;;;;;;;;;;18.90;72.50;;;;;;4979515;28;89446;-50
2021/06/10 10:29:51;;;;;;;;;;;18.90;72.50;;;;;;4978668;28;89876;-50
2021/06/10 10:32:21;;;;;;;;;;;18.90;72.00;;;;;;4981948;28;88127;-52
2021/06/10 10:34:47;;;;;;;;;;;19.00;72.30;;;;;;4979118;28;88745;-54
2021/06/10 10:37:25;;;;;;;;;;;19.00;71.70;;;;;;4980538;28;86517;-51
2021/06/10 10:39:55;;;;;;;;;;;19.00;71.70;;;;;;4981847;28;88010;-51
2021/06/10 10:42:28;;;;;;;;;;;19.00;72.00;;;;;;4978750;28;89309;-51
2021/06/10 10:45:09;;;;;;;;;;;19.00;72.20;;;;;;4982145;28;88987;-53
2021/06/10 10:47:56;;;;;;;;;;;19.00;72.00;;;;;;4985660;28;88298;-52
2021/06/10 10:50:30;;;;;;;;;;;19.10;71.60;;;;;;4981577;28;89683;-51
2021/06/10 10:52:56;;;;;;;;;;;19.10;72.60;;;;;;4979871;28;87184;-53
2021/06/10 10:55:30;;;;;;;;;;;19.00;71.50;;;;;;4979077;28;88428;-50
2021/06/10 10:57:57;;;;;;;;;;;19.10;71.40;;;;;;4981683;28;90178;-51
2021/06/10 11:00:42;;;;;;;;;;;19.10;71.90;;;;;;4981172;28;87113;-56
2021/06/10 11:03:15;;;;;;;;;;;19.10;71.10;;;;;;4981936;28;87158;-51
2021/06/10 11:05:43;;;;;;;;;;;19.10;71.70;;;;;;4978900;28;88135;-51
2021/06/10 11:08:09;;;;;;;;;;;19.10;71.50;;;;;;4981503;28;87184;-52
2021/06/10 11:10:49;;;;;;;;;;;19.10;71.70;;;;;;4983982;28;88592;-54
2021/06/10 11:13:15;;;;;;;;;;;19.10;71.10;;;;;;4980248;28;88752;-53
2021/06/10 11:15:46;;;;;;;;;;;19.10;71.60;;;;;;4982551;28;88754;-52
2021/06/10 11:18:12;;;;;;;;;;;19.10;71.80;;;;;;4978354;28;89866;-53
2021/06/10 11:20:38;;;;;;;;;;;19.10;71.60;;;;;;4978850;28;88591;-52
2021/06/10 11:23:13;;;;;;;;;;;19.20;71.70;;;;;;4978764;28;87204;-50
2021/06/10 11:25:43;;;;;;;;;;;19.20;71.90;;;;;;4978774;28;87106;-53
2021/06/10 11:28:14;;;;;;;;;;;19.20;71.60;;;;;;4979419;28;86529;-52
2021/06/10 11:30:40;;;;;;;;;;;19.20;72.10;;;;;;4982299;28;88317;-52
2021/06/10 11:33:22;;;;;;;;;;;19.20;71.30;;;;;;4980564;28;87160;-52
2021/06/10 11:35:53;;;;;;;;;;;19.20;71.40;;;;;;4980190;28;88431;-50
2021/06/10 11:38:26;;;;;;;;;;;19.30;71.90;;;;;;4979862;28;90146;-55
2021/06/10 11:40:55;;;;;;;;;;;19.30;72.00;;;;;;4982138;28;88646;-50
2021/06/10 11:43:21;;;;;;;;;;;19.30;72.10;;;;;;4979471;28;89002;-51
2021/06/10 11:45:47;;;;;;;;;;;19.30;71.70;;;;;;4979298;28;88167;-50
2021/06/10 11:48:13;;;;;;;;;;;19.20;72.40;;;;;;4980039;28;87175;-54
2021/06/10 11:50:41;;;;;;;;;;;19.20;72.10;;;;;;4979687;28;89180;-51
2021/06/10 11:53:08;;;;;;;;;;;19.30;72.30;;;;;;4980592;28;88622;-52
2021/06/10 11:55:34;;;;;;;;;;;19.30;72.10;;;;;;4980583;28;87744;-52
2021/06/10 11:58:01;;;;;;;;;;;19.30;72.40;;;;;;4981243;28;89034;-51
2021/06/10 12:00:28;;;;;;;;;;;19.40;72.00;;;;;;4980939;28;88109;-51
2021/06/10 12:02:55;;;;;;;;;;;19.40;71.50;;;;;;4979218;28;88469;-53
2021/06/10 12:05:21;;;;;;;;;;;19.40;71.60;;;;;;4977406;28;87981;-52
2021/06/10 12:07:47;;;;;;;;;;;19.40;71.80;;;;;;4978334;28;87210;-51
2021/06/10 12:10:20;;;;;;;;;;;19.40;72.30;;;;;;4977566;28;87217;-52
2021/06/10 12:12:47;;;;;;;;;;;19.40;71.80;;;;;;4980597;28;88983;-50
2021/06/10 12:15:25;;;;;;;;;;;19.40;72.00;;;;;;4983335;28;87118;-51
2021/06/10 12:17:55;;;;;;;;;;;19.40;72.10;;;;;;4977905;28;88831;-52
2021/06/10 12:20:22;;;;;;;;;;;19.40;72.20;;;;;;4979134;28;87196;-53
2021/06/10 12:22:49;;;;;;;;;;;19.50;72.40;;;;;;4977943;28;88907;-52
2021/06/10 12:25:24;;;;;;;;;;;19.50;72.20;;;;;;4976365;28;89071;-52
2021/06/10 12:27:50;;;;;;;;;;;19.50;72.30;;;;;;4977024;28;87194;-50
2021/06/10 12:30:21;;;;;;;;;;;19.50;72.20;;;;;;4976867;28;89490;-53
2021/06/10 12:32:47;;;;;;;;;;;19.50;72.30;;;;;;4978159;28;88547;-50
2021/06/10 12:35:13;;;;;;;;;;;19.60;72.40;;;;;;4977410;28;87210;-52
2021/06/10 12:37:38;;;;;;;;;;;19.60;72.00;;;;;;4980954;28;89350;-51
2021/06/10 12:40:04;;;;;;;;;;;19.50;72.00;;;;;;4979458;28;87502;-50
2021/06/10 12:42:29;;;;;;;;;;;19.60;72.20;;;;;;4979674;28;89089;-53
2021/06/10 12:44:55;;;;;;;;;;;19.60;72.20;;;;;;4978312;28;88050;-51
2021/06/10 12:47:31;;;;;;;;;;;19.60;72.50;;;;;;4980070;28;87129;-50
2021/06/10 12:49:56;;;;;;;;;;;19.60;72.20;;;;;;4980101;28;89118;-54
2021/06/10 12:52:26;;;;;;;;;;;19.60;72.20;;;;;;4979197;28;90059;-52
2021/06/10 12:54:59;;;;;;;;;;;19.70;72.70;;;;;;4977905;28;87212;-52
2021/06/10 12:57:25;;;;;;;;;;;19.70;72.50;;;;;;4978356;28;89009;-54
2021/06/10 13:00:02;;;;;;;;;;;19.70;72.70;;;;;;4982245;28;88074;-51
2021/06/10 13:02:28;;;;;;;;;;;19.70;72.40;;;;;;4977772;28;88441;-50
2021/06/10 13:04:58;;;;;;;;;;;19.70;72.30;;;;;;4975918;28;89140;-50
2021/06/10 13:07:27;;;;;;;;;;;19.70;72.40;;;;;;4976937;28;86894;-51
2021/06/10 13:09:54;;;;;;;;;;;19.70;72.40;;;;;;4978832;28;87340;-50
2021/06/10 13:12:20;;;;;;;;;;;19.70;72.60;;;;;;4976984;28;89478;-50
2021/06/10 13:14:58;;;;;;;;;;;19.70;72.60;;;;;;4977105;28;88100;-52
2021/06/10 13:17:43;;;;;;;;;;;19.70;72.80;;;;;;4979771;28;88878;-51
2021/06/10 13:20:08;;;;;;;;;;;19.80;72.90;;;;;;4977964;28;87773;-50
2021/06/10 13:22:34;;;;;;;;;;;19.70;72.70;;;;;;4981136;28;87146;-51
2021/06/10 13:25:05;;;;;;;;;;;19.80;72.80;;;;;;4977854;28;87738;-51
2021/06/10 13:27:30;;;;;;;;;;;19.80;73.10;;;;;;4979360;28;87161;-51
2021/06/10 13:29:57;;;;;;;;;;;19.80;73.30;;;;;;4979516;28;87161;-51
2021/06/10 13:32:27;;;;;;;;;;;19.80;73.20;;;;;;4979737;28;88692;-51
2021/06/10 13:37:30;;;;;;;;;;;19.80;73.20;;;;;;4978696;28;87307;-50
2021/06/10 13:39:56;;;;;;;;;;;19.90;73.20;;;;;;4978193;28;89136;-53
2021/06/10 13:42:22;;;;;;;;;;;19.90;73.30;;;;;;4982365;28;87137;-52
2021/06/10 13:44:48;;;;;;;;;;;19.90;73.30;;;;;;4978940;28;89269;-51
2021/06/10 13:47:15;;;;;;;;;;;20.00;73.80;;;;;;4978489;28;87213;-51
2021/06/10 13:49:41;;;;;;;;;;;20.00;73.60;;;;;;4977749;28;88810;-52
2021/06/10 13:52:07;;;;;;;;;;;20.10;73.60;;;;;;4978128;28;87718;-50
2021/06/10 13:54:32;;;;;;;;;;;20.10;73.10;;;;;;4979418;28;87196;-54
2021/06/10 13:56:58;;;;;;;;;;;20.20;73.20;;;;;;4980596;28;87240;-52
2021/06/10 13:59:23;;;;;;;;;;;20.20;73.00;;;;;;4976612;28;88183;-52
2021/06/10 14:01:49;;;;;;;;;;;20.30;72.80;;;;;;4976468;28;87167;-53
2021/06/10 14:04:15;;;;;;;;;;;20.30;73.10;;;;;;4978646;28;88110;-52
2021/06/10 14:06:40;;;;;;;;;;;20.30;73.20;;;;;;4977405;28;87254;-53
2021/06/10 14:09:06;;;;;;;;;;;20.30;72.90;;;;;;4978699;28;87139;-51
2021/06/10 14:11:31;;;;;;;;;;;20.30;73.10;;;;;;4978992;28;89015;-51
2021/06/10 14:13:57;;;;;;;;;;;20.40;73.00;;;;;;4979955;28;87152;-52
2021/06/10 14:16:23;;;;;;;;;;;20.40;72.70;;;;;;4979600;28;87684;-51
2021/06/10 14:18:50;;;;;;;;;;;20.30;73.10;;;;;;4979157;28;88359;-53